sensor_id;sensor_type;location;lat;lon;timestamp;temperature;humidity
38020;DHT22;23829;51.350;17.286;2023-04-24T00:01:42;26.00;42.50
38020;DHT22;23829;51.350;17.286;2023-04-24T00:04:09;26.10;42.30
38020;DHT22;23829;51.350;17.286;2023-04-24T00:06:37;26.10;42.30
38020;DHT22;23829;51.350;17.286;2023-04-24T00:09:04;26.00;42.40
38020;DHT22;23829;51.350;17.286;2023-04-24T00:11:31;26.10;42.20
38020;DHT22;23829;51.350;17.286;2023-04-24T00:13:57;26.10;42.10
38020;DHT22;23829;51.350;17.286;2023-04-24T00:16:24;26.10;42.10
38020;DHT22;23829;51.350;17.286;2023-04-24T00:18:50;26.00;42.20
38020;DHT22;23829;51.350;17.286;2023-04-24T00:21:18;25.90;42.50
38020;DHT22;23829;51.350;17.286;2023-04-24T00:23:45;25.80;42.50
38020;DHT22;23829;51.350;17.286;2023-04-24T00:26:11;26.10;42.10
38020;DHT22;23829;51.350;17.286;2023-04-24T00:28:37;25.90;42.40
38020;DHT22;23829;51.350;17.286;2023-04-24T00:31:04;25.80;42.50
38020;DHT22;23829;51.350;17.286;2023-04-24T00:33:31;25.60;42.80
38020;DHT22;23829;51.350;17.286;2023-04-24T00:35:57;25.60;42.90
38020;DHT22;23829;51.350;17.286;2023-04-24T00:38:24;25.80;42.60
38020;DHT22;23829;51.350;17.286;2023-04-24T00:40:50;25.80;42.50
38020;DHT22;23829;51.350;17.286;2023-04-24T00:43:17;25.70;42.70
38020;DHT22;23829;51.350;17.286;2023-04-24T00:45:43;25.60;42.90
38020;DHT22;23829;51.350;17.286;2023-04-24T00:48:11;25.70;42.70
38020;DHT22;23829;51.350;17.286;2023-04-24T00:50:38;25.70;42.70
38020;DHT22;23829;51.350;17.286;2023-04-24T00:53:05;25.60;42.70
38020;DHT22;23829;51.350;17.286;2023-04-24T00:55:32;25.70;42.60
38020;DHT22;23829;51.350;17.286;2023-04-24T00:57:58;25.70;42.50
38020;DHT22;23829;51.350;17.286;2023-04-24T01:00:25;25.80;42.50
38020;DHT22;23829;51.350;17.286;2023-04-24T01:02:53;25.90;42.20
38020;DHT22;23829;51.350;17.286;2023-04-24T01:05:21;26.00;41.90
38020;DHT22;23829;51.350;17.286;2023-04-24T01:07:48;26.20;41.70
38020;DHT22;23829;51.350;17.286;2023-04-24T01:10:15;26.20;41.70
38020;DHT22;23829;51.350;17.286;2023-04-24T01:12:46;26.10;41.80
38020;DHT22;23829;51.350;17.286;2023-04-24T01:15:12;26.00;42.70
38020;DHT22;23829;51.350;17.286;2023-04-24T01:17:39;25.70;42.50
38020;DHT22;23829;51.350;17.286;2023-04-24T01:20:06;25.70;42.60
38020;DHT22;23829;51.350;17.286;2023-04-24T01:22:36;25.60;42.90
38020;DHT22;23829;51.350;17.286;2023-04-24T01:25:04;25.70;42.70
38020;DHT22;23829;51.350;17.286;2023-04-24T01:27:31;25.80;42.50
38020;DHT22;23829;51.350;17.286;2023-04-24T01:29:57;25.70;42.90
38020;DHT22;23829;51.350;17.286;2023-04-24T01:32:25;25.70;43.00
38020;DHT22;23829;51.350;17.286;2023-04-24T01:34:51;25.80;43.20
38020;DHT22;23829;51.350;17.286;2023-04-24T01:37:18;25.80;43.50
38020;DHT22;23829;51.350;17.286;2023-04-24T01:39:45;25.90;43.70
38020;DHT22;23829;51.350;17.286;2023-04-24T01:42:12;25.70;44.50
38020;DHT22;23829;51.350;17.286;2023-04-24T01:44:39;25.70;44.60
38020;DHT22;23829;51.350;17.286;2023-04-24T01:47:06;25.90;44.50
38020;DHT22;23829;51.350;17.286;2023-04-24T01:49:32;25.70;44.70
38020;DHT22;23829;51.350;17.286;2023-04-24T01:51:59;25.90;44.70
38020;DHT22;23829;51.350;17.286;2023-04-24T01:54:26;25.90;44.60
38020;DHT22;23829;51.350;17.286;2023-04-24T01:56:52;25.90;44.80
38020;DHT22;23829;51.350;17.286;2023-04-24T01:59:20;25.90;44.80
38020;DHT22;23829;51.350;17.286;2023-04-24T02:01:48;25.90;44.70
38020;DHT22;23829;51.350;17.286;2023-04-24T02:04:14;25.90;44.70
38020;DHT22;23829;51.350;17.286;2023-04-24T02:06:41;25.90;44.70
38020;DHT22;23829;51.350;17.286;2023-04-24T02:09:07;25.90;44.40
38020;DHT22;23829;51.350;17.286;2023-04-24T02:11:34;26.00;44.40
38020;DHT22;23829;51.350;17.286;2023-04-24T02:14:01;26.10;44.00
38020;DHT22;23829;51.350;17.286;2023-04-24T02:16:28;26.00;44.10
38020;DHT22;23829;51.350;17.286;2023-04-24T02:18:58;26.00;44.00
38020;DHT22;23829;51.350;17.286;2023-04-24T02:21:24;26.20;43.70
38020;DHT22;23829;51.350;17.286;2023-04-24T02:23:51;25.90;43.90
38020;DHT22;23829;51.350;17.286;2023-04-24T02:26:17;25.90;44.00
38020;DHT22;23829;51.350;17.286;2023-04-24T02:28:44;25.90;43.90
38020;DHT22;23829;51.350;17.286;2023-04-24T02:31:11;25.70;44.10
38020;DHT22;23829;51.350;17.286;2023-04-24T02:33:37;25.60;44.10
38020;DHT22;23829;51.350;17.286;2023-04-24T02:36:03;25.70;43.90
38020;DHT22;23829;51.350;17.286;2023-04-24T02:38:30;25.80;44.00
38020;DHT22;23829;51.350;17.286;2023-04-24T02:40:56;26.00;43.40
38020;DHT22;23829;51.350;17.286;2023-04-24T02:43:23;26.20;42.80
38020;DHT22;23829;51.350;17.286;2023-04-24T02:45:50;25.90;43.20
38020;DHT22;23829;51.350;17.286;2023-04-24T02:48:16;25.60;43.60
38020;DHT22;23829;51.350;17.286;2023-04-24T02:50:43;25.70;43.70
38020;DHT22;23829;51.350;17.286;2023-04-24T02:53:10;25.60;43.80
38020;DHT22;23829;51.350;17.286;2023-04-24T02:55:36;25.30;44.00
38020;DHT22;23829;51.350;17.286;2023-04-24T02:58:02;25.30;44.10
38020;DHT22;23829;51.350;17.286;2023-04-24T03:00:29;25.20;44.20
38020;DHT22;23829;51.350;17.286;2023-04-24T03:02:56;25.30;44.70
38020;DHT22;23829;51.350;17.286;2023-04-24T03:05:22;25.30;44.00
38020;DHT22;23829;51.350;17.286;2023-04-24T03:07:49;25.30;43.80
38020;DHT22;23829;51.350;17.286;2023-04-24T03:10:15;25.20;44.00
38020;DHT22;23829;51.350;17.286;2023-04-24T03:12:42;25.20;43.90
38020;DHT22;23829;51.350;17.286;2023-04-24T03:15:09;25.20;43.90
38020;DHT22;23829;51.350;17.286;2023-04-24T03:17:37;25.50;43.40
38020;DHT22;23829;51.350;17.286;2023-04-24T03:20:03;25.50;43.20
38020;DHT22;23829;51.350;17.286;2023-04-24T03:22:32;25.30;43.50
38020;DHT22;23829;51.350;17.286;2023-04-24T03:25:01;25.20;43.60
38020;DHT22;23829;51.350;17.286;2023-04-24T03:27:27;25.30;43.40
38020;DHT22;23829;51.350;17.286;2023-04-24T03:29:57;25.20;43.40
38020;DHT22;23829;51.350;17.286;2023-04-24T03:32:32;25.20;43.60
38020;DHT22;23829;51.350;17.286;2023-04-24T03:34:59;25.10;43.60
38020;DHT22;23829;51.350;17.286;2023-04-24T03:37:25;25.30;43.40
38020;DHT22;23829;51.350;17.286;2023-04-24T03:40:04;25.50;43.10
38020;DHT22;23829;51.350;17.286;2023-04-24T03:42:34;25.30;43.00
38020;DHT22;23829;51.350;17.286;2023-04-24T03:45:01;25.20;43.10
38020;DHT22;23829;51.350;17.286;2023-04-24T03:47:31;25.10;43.30
38020;DHT22;23829;51.350;17.286;2023-04-24T03:50:01;25.30;43.10
38020;DHT22;23829;51.350;17.286;2023-04-24T03:52:28;25.40;42.70
38020;DHT22;23829;51.350;17.286;2023-04-24T03:54:55;25.60;42.30
38020;DHT22;23829;51.350;17.286;2023-04-24T03:57:23;25.80;41.90
38020;DHT22;23829;51.350;17.286;2023-04-24T04:00:07;25.80;41.90
38020;DHT22;23829;51.350;17.286;2023-04-24T04:02:40;25.60;42.10
38020;DHT22;23829;51.350;17.286;2023-04-24T04:05:08;25.40;42.30
38020;DHT22;23829;51.350;17.286;2023-04-24T04:07:35;25.50;42.70
38020;DHT22;23829;51.350;17.286;2023-04-24T04:10:02;25.60;42.00
38020;DHT22;23829;51.350;17.286;2023-04-24T04:12:29;25.50;42.10
38020;DHT22;23829;51.350;17.286;2023-04-24T04:14:56;25.20;42.10
38020;DHT22;23829;51.350;17.286;2023-04-24T04:17:23;25.00;42.70
38020;DHT22;23829;51.350;17.286;2023-04-24T04:19:49;24.90;42.70
38020;DHT22;23829;51.350;17.286;2023-04-24T04:22:16;24.90;42.70
38020;DHT22;23829;51.350;17.286;2023-04-24T04:24:46;24.90;42.40
38020;DHT22;23829;51.350;17.286;2023-04-24T04:27:13;24.70;42.70
38020;DHT22;23829;51.350;17.286;2023-04-24T04:30:07;24.70;42.70
38020;DHT22;23829;51.350;17.286;2023-04-24T04:32:42;24.70;42.70
38020;DHT22;23829;51.350;17.286;2023-04-24T04:35:09;24.60;42.70
38020;DHT22;23829;51.350;17.286;2023-04-24T04:37:36;24.70;42.80
38020;DHT22;23829;51.350;17.286;2023-04-24T04:40:17;24.80;42.50
38020;DHT22;23829;51.350;17.286;2023-04-24T04:42:51;24.90;42.00
38020;DHT22;23829;51.350;17.286;2023-04-24T04:45:20;24.90;42.00
38020;DHT22;23829;51.350;17.286;2023-04-24T04:48:07;25.00;42.00
38020;DHT22;23829;51.350;17.286;2023-04-24T04:50:39;25.00;42.00
38020;DHT22;23829;51.350;17.286;2023-04-24T04:53:07;25.10;41.70
38020;DHT22;23829;51.350;17.286;2023-04-24T04:55:37;25.30;41.20
38020;DHT22;23829;51.350;17.286;2023-04-24T04:58:09;25.10;41.20
38020;DHT22;23829;51.350;17.286;2023-04-24T05:00:36;24.90;41.50
38020;DHT22;23829;51.350;17.286;2023-04-24T05:03:11;24.90;41.80
38020;DHT22;23829;51.350;17.286;2023-04-24T05:05:39;24.80;41.70
38020;DHT22;23829;51.350;17.286;2023-04-24T05:08:09;25.00;41.40
38020;DHT22;23829;51.350;17.286;2023-04-24T05:10:36;25.10;41.10
38020;DHT22;23829;51.350;17.286;2023-04-24T05:13:04;25.20;41.50
38020;DHT22;23829;51.350;17.286;2023-04-24T05:15:32;25.20;41.00
38020;DHT22;23829;51.350;17.286;2023-04-24T05:18:00;25.20;41.30
38020;DHT22;23829;51.350;17.286;2023-04-24T05:20:28;25.20;41.30
38020;DHT22;23829;51.350;17.286;2023-04-24T05:22:54;25.40;40.60
38020;DHT22;23829;51.350;17.286;2023-04-24T05:25:22;25.60;40.60
38020;DHT22;23829;51.350;17.286;2023-04-24T05:27:59;25.60;40.40
38020;DHT22;23829;51.350;17.286;2023-04-24T05:30:26;25.60;40.40
38020;DHT22;23829;51.350;17.286;2023-04-24T05:32:54;25.80;40.00
38020;DHT22;23829;51.350;17.286;2023-04-24T05:35:20;25.80;39.90
38020;DHT22;23829;51.350;17.286;2023-04-24T05:37:47;25.80;39.80
38020;DHT22;23829;51.350;17.286;2023-04-24T05:40:14;25.90;39.70
38020;DHT22;23829;51.350;17.286;2023-04-24T05:42:40;26.20;39.40
38020;DHT22;23829;51.350;17.286;2023-04-24T05:45:07;26.30;39.20
38020;DHT22;23829;51.350;17.286;2023-04-24T05:47:35;26.20;39.00
38020;DHT22;23829;51.350;17.286;2023-04-24T05:50:01;26.20;39.10
38020;DHT22;23829;51.350;17.286;2023-04-24T05:52:29;26.10;39.20
38020;DHT22;23829;51.350;17.286;2023-04-24T05:54:55;26.10;39.30
38020;DHT22;23829;51.350;17.286;2023-04-24T05:57:25;26.10;38.90
38020;DHT22;23829;51.350;17.286;2023-04-24T06:00:01;26.10;39.00
38020;DHT22;23829;51.350;17.286;2023-04-24T06:02:29;26.30;39.40
38020;DHT22;23829;51.350;17.286;2023-04-24T06:04:59;26.40;38.60
38020;DHT22;23829;51.350;17.286;2023-04-24T06:07:26;26.60;38.60
38020;DHT22;23829;51.350;17.286;2023-04-24T06:09:52;26.40;38.40
38020;DHT22;23829;51.350;17.286;2023-04-24T06:12:19;26.30;38.70
38020;DHT22;23829;51.350;17.286;2023-04-24T06:14:54;26.30;38.80
38020;DHT22;23829;51.350;17.286;2023-04-24T06:17:32;26.40;38.90
38020;DHT22;23829;51.350;17.286;2023-04-24T06:19:59;26.50;38.70
38020;DHT22;23829;51.350;17.286;2023-04-24T06:22:25;26.40;38.80
38020;DHT22;23829;51.350;17.286;2023-04-24T06:24:52;26.50;39.00
38020;DHT22;23829;51.350;17.286;2023-04-24T06:27:18;26.70;38.70
38020;DHT22;23829;51.350;17.286;2023-04-24T06:29:45;26.70;38.70
38020;DHT22;23829;51.350;17.286;2023-04-24T06:32:11;26.40;38.90
38020;DHT22;23829;51.350;17.286;2023-04-24T06:34:37;26.30;39.50
38020;DHT22;23829;51.350;17.286;2023-04-24T06:37:03;26.40;39.60
38020;DHT22;23829;51.350;17.286;2023-04-24T06:39:30;26.60;39.30
38020;DHT22;23829;51.350;17.286;2023-04-24T06:41:57;26.80;39.20
38020;DHT22;23829;51.350;17.286;2023-04-24T06:44:24;26.90;38.90
38020;DHT22;23829;51.350;17.286;2023-04-24T06:46:52;27.10;38.70
38020;DHT22;23829;51.350;17.286;2023-04-24T06:49:19;27.20;38.70
38020;DHT22;23829;51.350;17.286;2023-04-24T06:51:46;27.20;38.60
38020;DHT22;23829;51.350;17.286;2023-04-24T06:54:12;27.30;38.40
38020;DHT22;23829;51.350;17.286;2023-04-24T06:56:39;27.40;38.30
38020;DHT22;23829;51.350;17.286;2023-04-24T06:59:05;27.50;38.00
38020;DHT22;23829;51.350;17.286;2023-04-24T07:01:31;27.30;37.90
38020;DHT22;23829;51.350;17.286;2023-04-24T07:03:58;27.60;37.80
38020;DHT22;23829;51.350;17.286;2023-04-24T07:06:25;28.00;37.30
38020;DHT22;23829;51.350;17.286;2023-04-24T07:08:53;27.70;37.20
38020;DHT22;23829;51.350;17.286;2023-04-24T07:11:20;27.70;37.60
38020;DHT22;23829;51.350;17.286;2023-04-24T07:13:47;27.80;37.20
38020;DHT22;23829;51.350;17.286;2023-04-24T07:16:13;27.90;37.40
38020;DHT22;23829;51.350;17.286;2023-04-24T07:18:39;27.90;37.50
38020;DHT22;23829;51.350;17.286;2023-04-24T07:21:06;28.10;37.40
38020;DHT22;23829;51.350;17.286;2023-04-24T07:23:33;28.60;36.70
38020;DHT22;23829;51.350;17.286;2023-04-24T07:25:59;28.90;36.60
38020;DHT22;23829;51.350;17.286;2023-04-24T07:28:26;29.20;35.90
38020;DHT22;23829;51.350;17.286;2023-04-24T07:30:52;29.40;35.90
38020;DHT22;23829;51.350;17.286;2023-04-24T07:33:20;29.10;36.30
38020;DHT22;23829;51.350;17.286;2023-04-24T07:35:46;29.00;36.80
38020;DHT22;23829;51.350;17.286;2023-04-24T07:38:13;29.30;36.90
38020;DHT22;23829;51.350;17.286;2023-04-24T07:40:39;29.60;36.20
38020;DHT22;23829;51.350;17.286;2023-04-24T07:43:06;29.50;36.20
38020;DHT22;23829;51.350;17.286;2023-04-24T07:45:32;29.30;36.10
38020;DHT22;23829;51.350;17.286;2023-04-24T07:48:02;29.60;35.20
38020;DHT22;23829;51.350;17.286;2023-04-24T07:50:29;29.90;34.60
38020;DHT22;23829;51.350;17.286;2023-04-24T07:52:56;29.90;34.20
38020;DHT22;23829;51.350;17.286;2023-04-24T07:55:22;30.30;34.20
38020;DHT22;23829;51.350;17.286;2023-04-24T07:57:49;30.30;34.00
38020;DHT22;23829;51.350;17.286;2023-04-24T08:00:16;30.50;33.80
38020;DHT22;23829;51.350;17.286;2023-04-24T08:02:42;30.40;33.80
38020;DHT22;23829;51.350;17.286;2023-04-24T08:05:09;30.20;34.20
38020;DHT22;23829;51.350;17.286;2023-04-24T08:07:36;30.20;34.30
38020;DHT22;23829;51.350;17.286;2023-04-24T08:10:02;30.20;34.80
38020;DHT22;23829;51.350;17.286;2023-04-24T08:12:29;30.70;35.10
38020;DHT22;23829;51.350;17.286;2023-04-24T08:14:55;30.60;34.40
38020;DHT22;23829;51.350;17.286;2023-04-24T08:17:22;30.60;35.20
38020;DHT22;23829;51.350;17.286;2023-04-24T08:19:48;30.70;34.30
38020;DHT22;23829;51.350;17.286;2023-04-24T08:22:15;30.50;34.40
38020;DHT22;23829;51.350;17.286;2023-04-24T08:24:41;30.50;34.60
38020;DHT22;23829;51.350;17.286;2023-04-24T08:27:08;30.40;34.50
38020;DHT22;23829;51.350;17.286;2023-04-24T08:29:35;30.70;34.00
38020;DHT22;23829;51.350;17.286;2023-04-24T08:32:02;30.80;33.90
38020;DHT22;23829;51.350;17.286;2023-04-24T08:34:28;30.90;34.00
38020;DHT22;23829;51.350;17.286;2023-04-24T08:36:54;30.50;34.20
38020;DHT22;23829;51.350;17.286;2023-04-24T08:39:21;30.50;34.90
38020;DHT22;23829;51.350;17.286;2023-04-24T08:41:48;30.30;34.40
38020;DHT22;23829;51.350;17.286;2023-04-24T08:44:15;30.30;34.70
38020;DHT22;23829;51.350;17.286;2023-04-24T08:46:48;30.80;35.10
38020;DHT22;23829;51.350;17.286;2023-04-24T08:49:15;30.80;34.30
38020;DHT22;23829;51.350;17.286;2023-04-24T08:51:45;30.90;34.20
38020;DHT22;23829;51.350;17.286;2023-04-24T08:54:13;31.10;33.60
38020;DHT22;23829;51.350;17.286;2023-04-24T08:56:44;31.30;33.60
38020;DHT22;23829;51.350;17.286;2023-04-24T08:59:11;31.40;35.90
38020;DHT22;23829;51.350;17.286;2023-04-24T09:01:40;31.20;35.30
38020;DHT22;23829;51.350;17.286;2023-04-24T09:04:08;31.10;37.40
38020;DHT22;23829;51.350;17.286;2023-04-24T09:06:39;31.50;36.80
38020;DHT22;23829;51.350;17.286;2023-04-24T09:09:06;31.70;37.00
38020;DHT22;23829;51.350;17.286;2023-04-24T09:11:34;31.70;37.20
38020;DHT22;23829;51.350;17.286;2023-04-24T09:14:01;31.70;36.50
38020;DHT22;23829;51.350;17.286;2023-04-24T09:16:28;31.70;36.40
38020;DHT22;23829;51.350;17.286;2023-04-24T09:18:55;32.10;35.60
38020;DHT22;23829;51.350;17.286;2023-04-24T09:21:22;32.60;33.80
38020;DHT22;23829;51.350;17.286;2023-04-24T09:23:59;32.40;33.70
38020;DHT22;23829;51.350;17.286;2023-04-24T09:26:30;32.50;33.40
38020;DHT22;23829;51.350;17.286;2023-04-24T09:28:58;32.40;33.60
38020;DHT22;23829;51.350;17.286;2023-04-24T09:31:27;32.30;33.00
38020;DHT22;23829;51.350;17.286;2023-04-24T09:34:01;32.50;32.90
38020;DHT22;23829;51.350;17.286;2023-04-24T09:36:36;32.80;32.10
38020;DHT22;23829;51.350;17.286;2023-04-24T09:39:08;32.30;32.40
38020;DHT22;23829;51.350;17.286;2023-04-24T09:41:53;32.30;32.70
38020;DHT22;23829;51.350;17.286;2023-04-24T09:44:26;31.90;33.20
38020;DHT22;23829;51.350;17.286;2023-04-24T09:46:58;31.80;33.60
38020;DHT22;23829;51.350;17.286;2023-04-24T09:49:26;32.10;33.30
38020;DHT22;23829;51.350;17.286;2023-04-24T09:52:09;32.20;32.80
38020;DHT22;23829;51.350;17.286;2023-04-24T09:54:36;32.50;32.60
38020;DHT22;23829;51.350;17.286;2023-04-24T09:57:03;32.70;34.00
38020;DHT22;23829;51.350;17.286;2023-04-24T09:59:30;32.70;33.40
38020;DHT22;23829;51.350;17.286;2023-04-24T10:01:56;32.60;32.80
38020;DHT22;23829;51.350;17.286;2023-04-24T10:04:26;32.70;33.00
38020;DHT22;23829;51.350;17.286;2023-04-24T10:06:55;32.80;33.20
38020;DHT22;23829;51.350;17.286;2023-04-24T10:09:26;32.90;32.80
38020;DHT22;23829;51.350;17.286;2023-04-24T10:11:54;32.80;32.70
38020;DHT22;23829;51.350;17.286;2023-04-24T10:14:22;32.80;33.00
38020;DHT22;23829;51.350;17.286;2023-04-24T10:16:52;32.70;33.20
38020;DHT22;23829;51.350;17.286;2023-04-24T10:19:18;32.30;33.50
38020;DHT22;23829;51.350;17.286;2023-04-24T10:21:46;32.40;33.50
38020;DHT22;23829;51.350;17.286;2023-04-24T10:24:17;32.10;33.80
38020;DHT22;23829;51.350;17.286;2023-04-24T10:26:45;32.30;34.20
38020;DHT22;23829;51.350;17.286;2023-04-24T10:29:16;32.00;33.60
38020;DHT22;23829;51.350;17.286;2023-04-24T10:31:43;32.00;34.10
38020;DHT22;23829;51.350;17.286;2023-04-24T10:34:15;32.40;33.80
38020;DHT22;23829;51.350;17.286;2023-04-24T10:36:48;32.40;33.80
38020;DHT22;23829;51.350;17.286;2023-04-24T10:39:17;32.50;33.60
38020;DHT22;23829;51.350;17.286;2023-04-24T10:41:45;32.80;32.80
38020;DHT22;23829;51.350;17.286;2023-04-24T10:44:14;33.10;32.30
38020;DHT22;23829;51.350;17.286;2023-04-24T10:46:45;33.30;32.10
38020;DHT22;23829;51.350;17.286;2023-04-24T10:49:13;33.40;32.10
38020;DHT22;23829;51.350;17.286;2023-04-24T10:51:53;33.30;32.10
38020;DHT22;23829;51.350;17.286;2023-04-24T10:54:27;33.20;32.20
38020;DHT22;23829;51.350;17.286;2023-04-24T10:59:50;33.30;31.80
38020;DHT22;23829;51.350;17.286;2023-04-24T11:02:18;33.60;31.10
38020;DHT22;23829;51.350;17.286;2023-04-24T11:05:03;33.00;31.20
38020;DHT22;23829;51.350;17.286;2023-04-24T11:10:38;33.00;32.60
38020;DHT22;23829;51.350;17.286;2023-04-24T11:13:05;33.00;32.30
38020;DHT22;23829;51.350;17.286;2023-04-24T11:15:31;33.00;32.00
38020;DHT22;23829;51.350;17.286;2023-04-24T11:17:57;32.80;31.80
38020;DHT22;23829;51.350;17.286;2023-04-24T11:20:24;32.80;31.50
38020;DHT22;23829;51.350;17.286;2023-04-24T11:22:55;32.50;32.70
38020;DHT22;23829;51.350;17.286;2023-04-24T11:25:31;32.60;33.00
38020;DHT22;23829;51.350;17.286;2023-04-24T11:28:05;32.90;33.20
38020;DHT22;23829;51.350;17.286;2023-04-24T11:30:32;33.30;32.00
38020;DHT22;23829;51.350;17.286;2023-04-24T11:33:03;33.30;31.80
38020;DHT22;23829;51.350;17.286;2023-04-24T11:35:35;33.00;32.20
38020;DHT22;23829;51.350;17.286;2023-04-24T11:38:03;33.20;32.20
38020;DHT22;23829;51.350;17.286;2023-04-24T11:40:31;33.50;31.60
38020;DHT22;23829;51.350;17.286;2023-04-24T11:42:59;33.30;31.90
38020;DHT22;23829;51.350;17.286;2023-04-24T11:45:28;33.40;31.70
38020;DHT22;23829;51.350;17.286;2023-04-24T11:47:55;33.30;31.70
38020;DHT22;23829;51.350;17.286;2023-04-24T11:50:25;33.40;31.80
38020;DHT22;23829;51.350;17.286;2023-04-24T11:52:56;33.50;32.00
38020;DHT22;23829;51.350;17.286;2023-04-24T11:57:51;33.00;32.50
38020;DHT22;23829;51.350;17.286;2023-04-24T12:00:26;33.10;32.80
38020;DHT22;23829;51.350;17.286;2023-04-24T12:03:10;33.00;32.10
38020;DHT22;23829;51.350;17.286;2023-04-24T12:05:38;33.20;31.90
38020;DHT22;23829;51.350;17.286;2023-04-24T12:08:05;33.00;32.30
38020;DHT22;23829;51.350;17.286;2023-04-24T12:10:32;33.00;32.50
38020;DHT22;23829;51.350;17.286;2023-04-24T12:12:59;33.00;33.00
38020;DHT22;23829;51.350;17.286;2023-04-24T12:15:27;33.40;32.10
38020;DHT22;23829;51.350;17.286;2023-04-24T12:17:55;33.60;31.40
38020;DHT22;23829;51.350;17.286;2023-04-24T12:20:30;33.50;31.80
38020;DHT22;23829;51.350;17.286;2023-04-24T12:22:58;33.40;31.20
38020;DHT22;23829;51.350;17.286;2023-04-24T12:25:26;33.50;31.00
38020;DHT22;23829;51.350;17.286;2023-04-24T12:28:08;33.40;31.40
38020;DHT22;23829;51.350;17.286;2023-04-24T12:30:54;33.60;30.70
38020;DHT22;23829;51.350;17.286;2023-04-24T12:33:21;33.40;31.30
38020;DHT22;23829;51.350;17.286;2023-04-24T12:35:51;33.30;31.60
38020;DHT22;23829;51.350;17.286;2023-04-24T12:38:23;33.30;31.10
38020;DHT22;23829;51.350;17.286;2023-04-24T12:41:05;33.10;32.00
38020;DHT22;23829;51.350;17.286;2023-04-24T12:43:32;32.70;32.50
38020;DHT22;23829;51.350;17.286;2023-04-24T12:45:59;32.60;32.50
38020;DHT22;23829;51.350;17.286;2023-04-24T12:48:29;32.60;32.60
38020;DHT22;23829;51.350;17.286;2023-04-24T12:50:59;32.80;32.90
38020;DHT22;23829;51.350;17.286;2023-04-24T12:53:29;32.60;33.70
38020;DHT22;23829;51.350;17.286;2023-04-24T12:55:57;32.50;33.80
38020;DHT22;23829;51.350;17.286;2023-04-24T12:58:23;32.40;33.80
38020;DHT22;23829;51.350;17.286;2023-04-24T13:00:50;32.30;33.60
38020;DHT22;23829;51.350;17.286;2023-04-24T13:03:17;32.10;34.00
38020;DHT22;23829;51.350;17.286;2023-04-24T13:05:44;32.20;35.40
38020;DHT22;23829;51.350;17.286;2023-04-24T13:08:10;32.10;34.90
38020;DHT22;23829;51.350;17.286;2023-04-24T13:10:36;31.90;36.40
38020;DHT22;23829;51.350;17.286;2023-04-24T13:13:03;31.80;37.30
38020;DHT22;23829;51.350;17.286;2023-04-24T13:15:29;31.70;37.60
38020;DHT22;23829;51.350;17.286;2023-04-24T13:17:56;31.60;37.70
38020;DHT22;23829;51.350;17.286;2023-04-24T13:20:22;31.10;38.90
38020;DHT22;23829;51.350;17.286;2023-04-24T13:22:49;31.00;39.40
38020;DHT22;23829;51.350;17.286;2023-04-24T13:25:15;31.10;39.30
38020;DHT22;23829;51.350;17.286;2023-04-24T13:27:43;31.20;39.50
38020;DHT22;23829;51.350;17.286;2023-04-24T13:30:09;31.20;39.50
38020;DHT22;23829;51.350;17.286;2023-04-24T13:32:36;31.00;39.90
38020;DHT22;23829;51.350;17.286;2023-04-24T13:35:03;31.00;40.10
38020;DHT22;23829;51.350;17.286;2023-04-24T13:37:30;31.10;40.30
38020;DHT22;23829;51.350;17.286;2023-04-24T13:39:56;31.10;40.40
38020;DHT22;23829;51.350;17.286;2023-04-24T13:42:23;31.10;39.90
38020;DHT22;23829;51.350;17.286;2023-04-24T13:44:49;31.10;40.30
38020;DHT22;23829;51.350;17.286;2023-04-24T13:47:17;31.10;40.00
38020;DHT22;23829;51.350;17.286;2023-04-24T13:49:43;31.20;40.50
38020;DHT22;23829;51.350;17.286;2023-04-24T13:52:10;31.30;40.70
38020;DHT22;23829;51.350;17.286;2023-04-24T13:54:36;31.20;40.80
38020;DHT22;23829;51.350;17.286;2023-04-24T13:57:03;31.10;41.20
38020;DHT22;23829;51.350;17.286;2023-04-24T13:59:29;31.30;41.90
38020;DHT22;23829;51.350;17.286;2023-04-24T14:01:56;31.50;41.00
38020;DHT22;23829;51.350;17.286;2023-04-24T14:04:22;31.40;40.80
38020;DHT22;23829;51.350;17.286;2023-04-24T14:06:49;31.50;41.70
38020;DHT22;23829;51.350;17.286;2023-04-24T14:09:15;31.50;40.50
38020;DHT22;23829;51.350;17.286;2023-04-24T14:11:42;31.50;40.40
38020;DHT22;23829;51.350;17.286;2023-04-24T14:14:08;31.50;39.60
38020;DHT22;23829;51.350;17.286;2023-04-24T14:16:35;31.10;39.30
38020;DHT22;23829;51.350;17.286;2023-04-24T14:19:01;30.90;39.20
38020;DHT22;23829;51.350;17.286;2023-04-24T14:21:28;30.90;38.90
38020;DHT22;23829;51.350;17.286;2023-04-24T14:23:54;30.80;39.30
38020;DHT22;23829;51.350;17.286;2023-04-24T14:26:21;30.90;38.70
38020;DHT22;23829;51.350;17.286;2023-04-24T14:28:47;30.70;39.00
38020;DHT22;23829;51.350;17.286;2023-04-24T14:31:14;30.00;39.70
38020;DHT22;23829;51.350;17.286;2023-04-24T14:33:40;29.50;40.70
38020;DHT22;23829;51.350;17.286;2023-04-24T14:36:07;29.40;40.80
38020;DHT22;23829;51.350;17.286;2023-04-24T14:38:34;29.10;41.20
38020;DHT22;23829;51.350;17.286;2023-04-24T14:41:01;29.00;41.30
38020;DHT22;23829;51.350;17.286;2023-04-24T14:43:28;29.10;41.50
38020;DHT22;23829;51.350;17.286;2023-04-24T14:45:54;29.10;41.60
38020;DHT22;23829;51.350;17.286;2023-04-24T14:48:21;29.30;41.80
38020;DHT22;23829;51.350;17.286;2023-04-24T14:50:48;29.40;41.70
38020;DHT22;23829;51.350;17.286;2023-04-24T14:53:17;29.70;41.10
38020;DHT22;23829;51.350;17.286;2023-04-24T14:55:44;29.70;40.90
38020;DHT22;23829;51.350;17.286;2023-04-24T14:58:10;29.70;40.90
38020;DHT22;23829;51.350;17.286;2023-04-24T15:00:37;29.80;40.70
38020;DHT22;23829;51.350;17.286;2023-04-24T15:03:03;29.80;40.50
38020;DHT22;23829;51.350;17.286;2023-04-24T15:05:30;29.60;40.40
38020;DHT22;23829;51.350;17.286;2023-04-24T15:07:56;29.60;40.50
38020;DHT22;23829;51.350;17.286;2023-04-24T15:10:23;29.70;40.70
38020;DHT22;23829;51.350;17.286;2023-04-24T15:12:51;29.60;40.90
38020;DHT22;23829;51.350;17.286;2023-04-24T15:15:18;29.50;41.10
38020;DHT22;23829;51.350;17.286;2023-04-24T15:17:44;29.50;41.40
38020;DHT22;23829;51.350;17.286;2023-04-24T15:20:11;29.50;41.50
38020;DHT22;23829;51.350;17.286;2023-04-24T15:22:37;29.50;41.40
38020;DHT22;23829;51.350;17.286;2023-04-24T15:25:04;29.50;41.40
38020;DHT22;23829;51.350;17.286;2023-04-24T15:27:45;29.70;41.10
38020;DHT22;23829;51.350;17.286;2023-04-24T15:30:13;29.60;40.80